Capitol Logistics 3266




TJSJ
Luis Munoz Marin International Airport
San Juan, PR
TGPY
Maurice Bishop International Airport
St. George's, GD

Activity Log

Date Flight Route Aircraft Duration
04/15/2021 CPX3266 JETSS1 COY GEECE SF34 2h 14m

Route Details

Aircraft Information
Primary: Saab 340AF
Backup: Not Available
Route Data
Distance: 527nm
Duration: 2h 45m
Recm'd Route: JETSS1 COY GEECE
Origin Wx: TJSJ 191156Z 10009KT 9SM FEW033 SCT080 SCT120 28/23 A3011 RMK AO2 SLP196 HZ ALQDS 60000 T02780228 10278 20256 53012
Dest. Wx: TGPY 191200Z 08014KT 9999 -SHRA SCT014CB SCT035 27/25 Q1016 TEMPO SHRA CB-N/NE/S TCU-W ADJ SHRA-ALQDS
Notes: